Time;durP1;ratioP1;P1;durP2;ratioP2;P2;SDS_P1;SDS_P2;PMS_P1;PMS_P2;Temp;Humidity;BMP_temperature;BMP_pressure;BME280_temperature;BME280_humidity;BME280_pressure;Samples;Min_cycle;Max_cycle;Signal;HPM_P1;HPM_P2
2022/01/10 00:00:17;;;;;;;20.90;15.80;;;2.40;99.90;;;;;;5024491;28;20211;-83
2022/01/10 00:02:46;;;;;;;22.00;17.20;;;2.30;99.90;;;;;;5023837;28;20176;-83
2022/01/10 00:05:12;;;;;;;22.90;17.33;;;2.20;99.90;;;;;;5000285;28;20215;-83
2022/01/10 00:07:39;;;;;;;25.73;18.30;;;2.10;99.90;;;;;;5023421;28;20195;-83
2022/01/10 00:10:06;;;;;;;26.00;18.27;;;2.00;99.90;;;;;;4996968;28;20230;-83
2022/01/10 00:12:31;;;;;;;28.87;19.33;;;1.90;99.90;;;;;;5024016;28;20175;-83
2022/01/10 00:14:57;;;;;;;26.50;18.90;;;1.90;99.90;;;;;;5005258;28;20218;-83
2022/01/10 00:17:23;;;;;;;27.17;18.97;;;2.00;99.90;;;;;;5006019;28;20184;-83
2022/01/10 00:19:48;;;;;;;29.47;19.93;;;1.90;99.90;;;;;;5023346;28;20195;-83
2022/01/10 00:22:14;;;;;;;26.90;18.67;;;2.10;99.90;;;;;;5006315;28;20659;-83
2022/01/10 00:24:40;;;;;;;27.07;19.53;;;2.00;99.90;;;;;;5023154;28;20283;-82
2022/01/10 00:27:06;;;;;;;28.73;18.53;;;2.00;99.90;;;;;;5005420;28;20240;-83
2022/01/10 00:29:32;;;;;;;26.57;18.50;;;2.00;99.90;;;;;;4996246;28;20616;-84
2022/01/10 00:31:58;;;;;;;28.60;19.57;;;2.30;99.90;;;;;;5004956;28;20521;-83
2022/01/10 00:34:25;;;;;;;31.37;19.90;;;2.30;99.90;;;;;;5014548;28;20199;-83
2022/01/10 00:36:51;;;;;;;29.23;20.10;;;1.80;99.90;;;;;;5008240;28;20271;-83
2022/01/10 00:39:17;;;;;;;31.50;20.50;;;2.70;99.90;;;;;;5022690;28;20209;-83
2022/01/10 00:41:44;;;;;;;32.00;21.67;;;1.80;99.90;;;;;;5021886;28;20593;-83
2022/01/10 00:44:10;;;;;;;26.50;19.30;;;1.80;99.90;;;;;;4998771;28;20191;-83
2022/01/10 00:46:36;;;;;;;26.93;18.93;;;2.30;99.90;;;;;;5005061;28;20187;-83
2022/01/10 00:49:02;;;;;;;29.27;17.90;;;2.00;99.90;;;;;;5014226;28;20164;-82
2022/01/10 00:51:28;;;;;;;29.67;19.93;;;2.00;99.90;;;;;;5003804;28;20523;-84
2022/01/10 00:53:53;;;;;;;31.47;20.60;;;1.90;99.90;;;;;;5004373;28;20207;-83
2022/01/10 00:56:20;;;;;;;29.83;19.47;;;1.80;99.90;;;;;;5001459;28;20182;-82
2022/01/10 00:58:47;;;;;;;30.50;20.53;;;2.00;99.90;;;;;;4999103;28;20175;-83
2022/01/10 01:01:13;;;;;;;31.43;20.90;;;1.80;99.90;;;;;;5020821;28;20171;-83
2022/01/10 01:03:44;;;;;;;30.07;20.17;;;1.70;99.90;;;;;;5002843;28;20191;-82
2022/01/10 01:06:11;;;;;;;30.10;20.03;;;1.70;99.90;;;;;;5009853;28;20783;-83
2022/01/10 01:08:37;;;;;;;30.07;20.67;;;1.70;99.90;;;;;;5006225;28;20183;-83
2022/01/10 01:13:50;;;;;;;32.70;21.23;;;1.70;99.90;;;;;;5004140;28;20191;-83
2022/01/10 01:16:29;;;;;;;30.47;21.00;;;1.90;99.90;;;;;;4986570;28;20536;-83
2022/01/10 01:19:12;;;;;;;27.87;19.67;;;1.60;99.90;;;;;;5001675;28;20187;-83
2022/01/10 01:24:22;;;;;;;31.13;20.37;;;1.60;99.90;;;;;;5000910;28;20253;-83
2022/01/10 01:26:51;;;;;;;30.63;19.00;;;1.60;99.90;;;;;;5001553;28;20196;-83
2022/01/10 01:29:20;;;;;;;33.03;21.53;;;1.50;99.90;;;;;;4980973;28;20187;-83
2022/01/10 01:31:46;;;;;;;34.53;20.20;;;1.50;99.90;;;;;;5002259;28;20191;-83
2022/01/10 01:34:14;;;;;;;29.90;19.27;;;2.60;99.90;;;;;;5002264;28;20683;-84
2022/01/10 01:36:41;;;;;;;28.10;17.90;;;1.90;99.90;;;;;;5000601;28;20165;-83
2022/01/10 01:39:19;;;;;;;26.63;18.00;;;1.70;99.90;;;;;;5005590;28;20635;-83
2022/01/10 01:41:45;;;;;;;25.67;17.57;;;1.90;99.90;;;;;;5002318;28;20183;-83
2022/01/10 01:44:12;;;;;;;26.77;17.57;;;1.70;99.90;;;;;;4981992;28;20315;-84
2022/01/10 01:46:39;;;;;;;25.47;17.20;;;1.80;99.90;;;;;;4999609;28;20191;-83
2022/01/10 01:49:06;;;;;;;25.60;17.43;;;1.90;99.90;;;;;;5001863;28;20260;-83
2022/01/10 01:51:32;;;;;;;26.13;17.13;;;1.90;99.90;;;;;;5000801;28;20171;-83
2022/01/10 01:53:58;;;;;;;24.77;17.23;;;1.90;99.90;;;;;;5000635;28;20207;-83
2022/01/10 01:56:24;;;;;;;24.63;16.73;;;1.20;99.90;;;;;;5000542;28;20179;-84
2022/01/10 01:58:54;;;;;;;24.50;17.20;;;1.90;99.90;;;;;;4982395;28;20172;-82
2022/01/10 02:01:21;;;;;;;21.00;15.40;;;2.00;99.90;;;;;;4999934;28;20617;-83
2022/01/10 02:03:48;;;;;;;18.03;13.90;;;2.80;99.90;;;;;;4999829;28;20329;-83
2022/01/10 02:06:14;;;;;;;18.17;13.67;;;3.00;99.90;;;;;;4987095;28;20191;-84
2022/01/10 02:08:41;;;;;;;18.40;13.40;;;2.10;99.90;;;;;;4982633;28;20262;-83
2022/01/10 02:11:10;;;;;;;18.43;13.60;;;2.10;99.90;;;;;;5000228;28;20168;-83
2022/01/10 02:13:36;;;;;;;18.53;13.77;;;2.10;99.90;;;;;;4982455;28;20238;-83
2022/01/10 02:16:06;;;;;;;17.37;13.27;;;2.20;99.90;;;;;;4981714;28;20574;-85
2022/01/10 02:18:35;;;;;;;16.13;12.30;;;2.20;99.90;;;;;;4981904;28;20186;-83
2022/01/10 02:21:05;;;;;;;21.13;15.63;;;2.20;99.90;;;;;;4998911;28;20177;-82
2022/01/10 02:23:32;;;;;;;24.87;16.33;;;2.10;99.90;;;;;;4985875;28;21018;-83
2022/01/10 02:25:58;;;;;;;26.97;17.00;;;2.00;99.90;;;;;;4983293;28;20200;-82
2022/01/10 02:28:24;;;;;;;24.13;16.87;;;1.90;99.90;;;;;;4984606;28;20240;-83
2022/01/10 02:30:55;;;;;;;26.00;17.77;;;1.90;99.90;;;;;;4982363;28;20188;-83
2022/01/10 02:33:22;;;;;;;28.10;18.27;;;1.90;99.90;;;;;;5000134;28;20160;-83
2022/01/10 02:36:02;;;;;;;23.90;16.23;;;1.80;99.90;;;;;;4995866;28;20853;-82
2022/01/10 02:38:28;;;;;;;25.90;17.53;;;1.80;99.90;;;;;;5003984;28;20167;-82
2022/01/10 02:40:55;;;;;;;27.83;17.43;;;2.50;99.90;;;;;;5000956;28;20222;-83
2022/01/10 02:43:20;;;;;;;26.60;17.40;;;1.70;99.90;;;;;;4983008;28;20180;-82
2022/01/10 02:45:47;;;;;;;27.97;17.20;;;2.20;99.90;;;;;;5020323;28;20171;-83
2022/01/10 02:48:13;;;;;;;26.13;17.80;;;1.80;99.90;;;;;;5019989;28;20175;-83
2022/01/10 02:50:39;;;;;;;24.83;16.87;;;1.80;99.90;;;;;;5020018;28;20171;-83
2022/01/10 02:53:05;;;;;;;27.63;18.03;;;2.00;99.90;;;;;;5000661;28;20166;-83
2022/01/10 02:55:30;;;;;;;28.20;17.43;;;1.90;99.90;;;;;;4997183;28;20171;-83
2022/01/10 02:57:56;;;;;;;27.77;17.80;;;1.90;99.90;;;;;;4999945;28;20170;-83
2022/01/10 03:00:25;;;;;;;27.07;17.37;;;1.80;99.90;;;;;;5002364;28;20171;-83
2022/01/10 03:02:53;;;;;;;26.70;17.10;;;1.70;99.90;;;;;;5020918;28;20175;-83
2022/01/10 03:05:21;;;;;;;28.27;17.77;;;1.80;99.90;;;;;;5019955;28;20191;-82
2022/01/10 03:07:50;;;;;;;27.67;17.77;;;1.60;99.90;;;;;;5004479;28;20278;-82
2022/01/10 03:10:16;;;;;;;31.70;18.47;;;1.60;99.90;;;;;;5018075;28;20191;-83
2022/01/10 03:12:42;;;;;;;28.10;18.20;;;1.70;99.90;;;;;;5001460;28;20175;-83
2022/01/10 03:15:09;;;;;;;29.03;16.93;;;1.80;99.90;;;;;;5023967;28;20271;-83
2022/01/10 03:17:36;;;;;;;26.17;17.70;;;1.80;99.90;;;;;;5006723;28;20267;-83
2022/01/10 03:20:05;;;;;;;29.23;18.27;;;1.80;99.90;;;;;;5006822;28;20179;-83
2022/01/10 03:22:31;;;;;;;22.93;16.37;;;1.70;99.90;;;;;;5023819;28;20205;-83
2022/01/10 03:25:00;;;;;;;28.17;17.83;;;1.60;99.90;;;;;;4997676;28;20195;-82
2022/01/10 03:27:26;;;;;;;24.63;16.20;;;1.70;99.90;;;;;;5012031;28;20241;-82
2022/01/10 03:29:53;;;;;;;21.97;15.57;;;1.70;99.90;;;;;;5019899;28;20632;-83
2022/01/10 03:32:18;;;;;;;25.13;16.27;;;1.60;99.90;;;;;;5016021;28;20196;-83
2022/01/10 03:34:44;;;;;;;23.97;16.37;;;1.50;99.90;;;;;;4993439;28;20218;-83
2022/01/10 03:37:10;;;;;;;25.47;16.00;;;1.50;99.90;;;;;;5024052;28;20177;-83
2022/01/10 03:39:36;;;;;;;26.90;17.00;;;1.50;99.90;;;;;;5027259;28;20538;-82
2022/01/10 03:42:02;;;;;;;28.03;17.47;;;1.40;99.90;;;;;;5027422;28;20179;-83
2022/01/10 03:44:28;;;;;;;26.47;16.70;;;1.40;99.90;;;;;;5006104;28;20210;-83
2022/01/10 03:46:56;;;;;;;25.73;16.50;;;1.40;99.90;;;;;;5008946;28;20195;-83
2022/01/10 03:49:22;;;;;;;25.57;17.03;;;1.40;99.90;;;;;;5023443;28;20189;-83
2022/01/10 03:51:48;;;;;;;29.90;16.73;;;1.50;99.90;;;;;;5023615;28;20179;-83
2022/01/10 03:54:13;;;;;;;26.63;17.53;;;2.00;99.90;;;;;;5005243;28;20194;-83
2022/01/10 03:56:39;;;;;;;27.13;17.23;;;2.00;99.90;;;;;;5023305;28;20202;-83
2022/01/10 03:59:05;;;;;;;30.27;17.53;;;1.40;99.90;;;;;;5000919;28;20174;-82
2022/01/10 04:01:31;;;;;;;28.50;16.93;;;1.40;99.90;;;;;;5005683;28;20275;-84
2022/01/10 04:03:57;;;;;;;23.27;15.80;;;1.40;99.90;;;;;;5023421;28;20226;-83
2022/01/10 04:06:23;;;;;;;25.87;16.47;;;1.60;99.90;;;;;;5005000;28;20639;-85
2022/01/10 04:08:49;;;;;;;21.67;14.50;;;2.00;99.90;;;;;;5006478;28;20197;-83
2022/01/10 04:11:15;;;;;;;23.47;15.23;;;1.50;99.90;;;;;;5005802;28;20680;-83
2022/01/10 04:13:40;;;;;;;22.50;14.80;;;2.50;99.90;;;;;;5023700;28;20202;-83
2022/01/10 04:16:06;;;;;;;17.37;13.40;;;1.70;99.90;;;;;;5006418;28;20205;-83
2022/01/10 04:18:32;;;;;;;19.63;13.90;;;1.80;99.90;;;;;;5004924;28;20195;-83
2022/01/10 04:20:58;;;;;;;18.63;13.00;;;1.80;99.90;;;;;;5014458;28;20181;-83
2022/01/10 04:23:24;;;;;;;18.60;13.53;;;2.80;99.90;;;;;;5018024;28;20258;-83
2022/01/10 04:25:50;;;;;;;19.13;13.87;;;1.90;99.90;;;;;;5006106;28;20209;-84
2022/01/10 04:28:16;;;;;;;18.13;13.77;;;1.90;99.90;;;;;;4995542;28;20184;-84
2022/01/10 04:30:42;;;;;;;15.20;13.10;;;1.90;99.90;;;;;;5004478;28;20191;-83
2022/01/10 04:33:09;;;;;;;17.07;13.30;;;1.90;99.90;;;;;;5022523;28;20175;-83
2022/01/10 04:35:35;;;;;;;21.60;15.03;;;2.00;99.90;;;;;;4990757;28;20194;-83
2022/01/10 04:38:01;;;;;;;21.67;13.90;;;1.80;99.90;;;;;;5005122;28;20330;-83
2022/01/10 04:40:27;;;;;;;23.00;14.67;;;1.80;99.90;;;;;;5009640;28;20208;-83
2022/01/10 04:42:53;;;;;;;23.90;15.40;;;1.70;99.90;;;;;;5004158;28;20235;-83
2022/01/10 04:45:19;;;;;;;20.87;14.03;;;1.70;99.90;;;;;;5006295;28;20188;-83
2022/01/10 04:47:45;;;;;;;28.10;15.70;;;1.60;99.90;;;;;;5004339;28;20202;-82
2022/01/10 04:52:46;;;;;;;24.03;15.63;;;1.40;99.90;;;;;;5023071;28;20249;-83
2022/01/10 04:55:12;;;;;;;23.23;14.73;;;1.50;99.90;;;;;;5004775;28;20195;-84
2022/01/10 04:57:38;;;;;;;25.37;16.20;;;1.40;99.90;;;;;;5001690;28;20699;-83
2022/01/10 05:00:06;;;;;;;24.70;15.60;;;1.40;99.90;;;;;;5017589;28;20426;-83
2022/01/10 05:02:31;;;;;;;25.30;16.13;;;1.40;99.90;;;;;;4980845;28;20198;-82
2022/01/10 05:04:57;;;;;;;26.67;16.07;;;1.40;99.90;;;;;;5022500;28;20277;-84
2022/01/10 05:07:23;;;;;;;23.80;15.17;;;1.40;99.90;;;;;;4995700;28;20202;-83
2022/01/10 05:09:48;;;;;;;22.07;13.93;;;1.50;99.90;;;;;;5000317;28;20180;-82
2022/01/10 05:12:14;;;;;;;23.30;13.77;;;1.50;99.90;;;;;;4995472;28;20179;-83
2022/01/10 05:14:40;;;;;;;18.90;13.10;;;1.60;99.90;;;;;;5000344;28;20556;-83
2022/01/10 05:17:06;;;;;;;16.17;12.40;;;1.70;99.90;;;;;;5021897;28;20179;-83
2022/01/10 05:19:32;;;;;;;18.57;12.20;;;2.10;99.90;;;;;;5021581;28;20217;-83
2022/01/10 05:21:57;;;;;;;16.33;11.60;;;1.80;99.90;;;;;;5011426;28;20182;-83
2022/01/10 05:24:23;;;;;;;15.53;11.77;;;1.90;99.90;;;;;;5004758;28;20222;-83
2022/01/10 05:26:49;;;;;;;13.23;10.80;;;1.90;99.90;;;;;;5004036;28;20183;-83
2022/01/10 05:29:15;;;;;;;12.57;10.13;;;1.90;99.90;;;;;;5013779;28;20174;-83
2022/01/10 05:31:41;;;;;;;17.90;13.07;;;1.90;99.90;;;;;;5003526;28;20183;-83
2022/01/10 05:34:09;;;;;;;19.17;12.27;;;1.80;99.90;;;;;;5003333;28;20195;-83
2022/01/10 05:36:35;;;;;;;15.40;11.00;;;1.80;99.90;;;;;;5008010;28;20193;-83
2022/01/10 05:39:01;;;;;;;16.50;11.57;;;1.70;99.90;;;;;;5017744;28;20179;-83
2022/01/10 05:41:27;;;;;;;16.67;12.63;;;1.60;99.90;;;;;;5021432;28;20195;-83
2022/01/10 05:43:55;;;;;;;17.60;12.60;;;1.60;99.90;;;;;;5022194;28;20207;-83
2022/01/10 05:46:21;;;;;;;17.13;12.13;;;1.50;99.90;;;;;;5002995;28;20270;-83
2022/01/10 05:48:49;;;;;;;14.60;11.47;;;1.90;99.90;;;;;;5020902;28;20207;-82
2022/01/10 05:51:15;;;;;;;17.73;10.90;;;1.60;99.90;;;;;;5003563;28;20261;-83
2022/01/10 05:53:42;;;;;;;14.13;11.30;;;1.70;99.90;;;;;;5002974;28;20206;-83
2022/01/10 05:56:07;;;;;;;13.87;11.40;;;1.80;99.90;;;;;;5004526;28;20171;-83
2022/01/10 05:58:33;;;;;;;15.97;11.13;;;1.80;99.90;;;;;;5018451;28;20230;-83
2022/01/10 06:00:59;;;;;;;14.03;10.77;;;1.80;99.90;;;;;;5021370;28;20644;-83
2022/01/10 06:03:25;;;;;;;11.83;9.97;;;1.90;99.90;;;;;;5003805;28;20222;-83
2022/01/10 06:05:51;;;;;;;11.53;9.80;;;1.90;99.90;;;;;;5003840;28;20620;-83
2022/01/10 06:08:17;;;;;;;13.03;10.77;;;1.90;99.90;;;;;;5003413;28;20312;-82
2022/01/10 06:10:43;;;;;;;13.57;9.57;;;1.90;99.90;;;;;;5003762;28;20167;-83
2022/01/10 06:13:09;;;;;;;13.43;9.30;;;1.90;99.90;;;;;;5003088;28;20163;-83
2022/01/10 06:15:35;;;;;;;12.40;9.13;;;1.90;99.90;;;;;;5020392;28;20174;-83
2022/01/10 06:18:01;;;;;;;10.23;8.57;;;1.90;99.90;;;;;;5002501;28;20639;-83
2022/01/10 06:20:26;;;;;;;13.53;9.50;;;2.60;99.90;;;;;;4999922;28;20175;-83
2022/01/10 06:22:52;;;;;;;16.67;10.03;;;1.90;99.90;;;;;;5013383;28;20179;-83
2022/01/10 06:25:21;;;;;;;14.27;9.97;;;2.40;99.90;;;;;;5020633;28;20690;-83
2022/01/10 06:27:47;;;;;;;13.90;10.93;;;1.80;99.90;;;;;;4993326;28;20223;-82
2022/01/10 06:30:13;;;;;;;13.80;9.73;;;2.00;99.90;;;;;;4977041;28;20177;-83
2022/01/10 06:32:39;;;;;;;12.23;9.33;;;1.70;99.90;;;;;;4999518;28;20171;-83
2022/01/10 06:35:05;;;;;;;14.30;9.57;;;1.70;99.90;;;;;;5003519;28;20203;-85
2022/01/10 06:37:31;;;;;;;15.40;10.43;;;1.80;99.90;;;;;;5001777;28;20179;-85
2022/01/10 06:39:56;;;;;;;10.47;9.10;;;1.80;99.90;;;;;;4996487;28;20169;-85
2022/01/10 06:42:22;;;;;;;10.67;8.73;;;1.80;99.90;;;;;;5000721;28;20179;-83
2022/01/10 06:44:50;;;;;;;10.57;8.37;;;1.80;99.90;;;;;;4983751;28;20216;-85
2022/01/10 06:47:15;;;;;;;11.03;8.10;;;1.90;99.90;;;;;;5003482;28;20252;-84
2022/01/10 06:49:50;;;;;;;8.83;7.27;;;1.90;99.90;;;;;;4969861;28;20217;-85
2022/01/10 06:52:17;;;;;;;9.77;7.37;;;1.90;99.90;;;;;;4975443;28;20240;-84
2022/01/10 06:54:42;;;;;;;12.17;9.40;;;1.90;99.90;;;;;;4970411;28;20207;-83
2022/01/10 06:57:08;;;;;;;10.50;9.00;;;1.80;99.90;;;;;;4982494;28;20172;-83
2022/01/10 06:59:34;;;;;;;13.80;9.10;;;1.90;99.90;;;;;;4967050;28;20185;-83
2022/01/10 07:02:03;;;;;;;11.53;6.77;;;1.70;99.90;;;;;;4975396;28;20171;-85
2022/01/10 07:04:37;;;;;;;8.43;6.47;;;1.60;99.90;;;;;;4974076;28;20206;-84
2022/01/10 07:07:12;;;;;;;9.03;6.07;;;1.60;99.90;;;;;;5010825;28;20187;-84
2022/01/10 07:16:18;;;;;;;9.23;5.77;;;1.60;99.90;;;;;;4915060;29;20194;-83
2022/01/10 07:18:44;;;;;;;8.87;5.33;;;1.60;99.90;;;;;;4915513;29;20691;-85
2022/01/10 07:21:10;;;;;;;12.80;7.57;;;1.80;99.90;;;;;;4996700;28;20191;-84
2022/01/10 07:23:35;;;;;;;10.57;6.43;;;1.50;99.90;;;;;;5003867;28;20227;-82
2022/01/10 07:26:01;;;;;;;10.43;6.40;;;1.50;99.90;;;;;;5015210;28;20196;-83
2022/01/10 07:28:27;;;;;;;9.27;6.33;;;1.90;99.90;;;;;;5017489;28;20179;-83
2022/01/10 07:30:52;;;;;;;11.87;6.87;;;1.70;99.90;;;;;;4987339;28;20180;-83
2022/01/10 07:33:18;;;;;;;7.10;5.83;;;1.90;99.90;;;;;;4992817;28;20256;-84
2022/01/10 07:35:44;;;;;;;8.30;5.87;;;2.10;99.90;;;;;;4977878;28;20663;-82
2022/01/10 07:38:09;;;;;;;13.23;7.00;;;1.70;99.90;;;;;;4979291;28;20184;-83
2022/01/10 07:40:35;;;;;;;8.63;5.80;;;1.80;99.90;;;;;;4992746;28;20191;-83
2022/01/10 07:43:00;;;;;;;6.37;5.43;;;1.80;99.90;;;;;;5010905;28;20309;-84
2022/01/10 07:45:26;;;;;;;8.10;5.97;;;1.80;99.90;;;;;;4997192;28;20211;-83
2022/01/10 07:47:53;;;;;;;5.93;5.00;;;1.90;99.90;;;;;;4993468;28;20191;-83
2022/01/10 07:50:19;;;;;;;9.07;5.30;;;1.90;99.90;;;;;;5006142;28;20229;-83
2022/01/10 07:52:50;;;;;;;7.17;5.27;;;1.90;99.90;;;;;;4996028;28;20890;-86
2022/01/10 08:17:13;;;;;;;10.10;6.23;;;2.00;99.90;;;;;;4976375;28;20217;-82
2022/01/10 09:42:45;;;;;;;7.50;5.43;;;2.40;99.90;;;;;;4995434;28;20200;-83
2022/01/10 09:45:11;;;;;;;9.63;5.37;;;2.50;99.90;;;;;;4971880;28;20208;-82
2022/01/10 09:47:37;;;;;;;6.67;4.90;;;3.20;99.90;;;;;;4960074;28;20287;-82
2022/01/10 09:50:06;;;;;;;9.00;5.87;;;2.50;99.90;;;;;;4950471;28;20264;-82
2022/01/10 09:52:32;;;;;;;10.10;5.47;;;2.50;99.90;;;;;;4957633;29;20646;-85
2022/01/10 10:58:39;;;;;;;;;;;;;;;;;;;;;
2022/01/10 11:01:44;;;;;;;8.30;5.57;;;3.00;99.90;;;;;;4904255;29;20276;-83
2022/01/10 12:02:26;;;;;;;12.70;7.33;;;3.60;99.90;;;;;;1106297;23;21373;-83
2022/01/10 12:25:14;;;;;;;9.50;7.83;;;2.90;99.90;;;;;;4971841;28;21017;-81
2022/01/10 12:27:46;;;;;;;12.97;7.67;;;3.30;99.90;;;;;;4954001;28;20313;-83
2022/01/10 12:30:34;;;;;;;11.03;9.60;;;3.50;99.90;;;;;;4960054;29;20169;-83
2022/01/10 12:43:23;;;;;;;12.33;8.13;;;3.80;99.90;;;;;;3001135;23;20245;-82
2022/01/10 12:45:58;;;;;;;14.87;7.87;;;4.50;99.90;;;;;;4995377;28;20180;-84
2022/01/10 12:48:30;;;;;;;14.70;8.23;;;4.40;99.90;;;;;;4975821;28;20203;-82
2022/01/10 12:51:02;;;;;;;14.37;8.80;;;3.80;99.90;;;;;;4980613;28;20239;-82
2022/01/10 12:53:37;;;;;;;16.33;8.33;;;3.70;99.90;;;;;;4977671;28;20180;-82
2022/01/10 12:56:16;;;;;;;11.37;8.10;;;3.80;99.90;;;;;;4995006;28;20185;-82
2022/01/10 12:58:45;;;;;;;11.10;7.20;;;4.80;99.90;;;;;;4997887;28;20551;-81
2022/01/10 13:01:24;;;;;;;9.67;7.33;;;4.50;99.90;;;;;;4997959;28;20184;-82
2022/01/10 13:04:36;;;;;;;;;;;;;;;;;;;;;
2022/01/10 13:07:36;;;;;;;13.70;7.50;;;3.30;99.90;;;;;;4996333;28;20640;-82
2022/01/10 13:10:11;;;;;;;11.03;7.87;;;3.80;99.90;;;;;;4996503;28;20180;-82
2022/01/10 13:13:31;;;;;;;9.20;8.13;;;4.00;99.90;;;;;;4997105;28;20179;-83
2022/01/10 13:15:59;;;;;;;13.33;7.57;;;3.60;99.90;;;;;;4996308;28;20271;-82
2022/01/10 13:18:35;;;;;;;10.60;6.37;;;3.70;99.90;;;;;;4999092;28;20177;-83
2022/01/10 13:24:56;;;;;;;13.77;6.90;;;3.60;99.90;;;;;;4945619;28;20222;-82
2022/01/10 13:27:31;;;;;;;11.20;6.33;;;4.30;99.90;;;;;;4990483;28;20521;-82
2022/01/10 13:30:12;;;;;;;10.03;6.47;;;3.20;99.90;;;;;;5005314;28;20187;-82
2022/01/10 13:32:41;;;;;;;11.57;6.43;;;3.10;99.90;;;;;;4982294;28;20184;-82
2022/01/10 13:35:11;;;;;;;9.57;6.37;;;4.30;99.90;;;;;;4979132;28;20211;-82
2022/01/10 13:37:56;;;;;;;13.27;7.17;;;3.70;99.90;;;;;;4979711;28;20196;-82
2022/01/10 13:40:33;;;;;;;11.33;6.50;;;3.70;99.90;;;;;;4978240;28;20187;-82
2022/01/10 13:43:23;;;;;;;9.80;6.27;;;3.60;99.90;;;;;;4995977;28;20251;-82
2022/01/10 13:46:17;;;;;;;12.67;6.67;;;3.70;99.90;;;;;;4995297;28;20252;-83
2022/01/10 13:48:53;;;;;;;11.73;6.77;;;4.50;99.90;;;;;;4994841;28;20267;-83
2022/01/10 13:51:24;;;;;;;9.10;6.83;;;3.40;99.90;;;;;;4993194;28;20186;-82
2022/01/10 13:54:17;;;;;;;7.23;5.67;;;4.40;99.90;;;;;;4978951;28;20266;-83
2022/01/10 13:56:46;;;;;;;8.13;6.70;;;3.70;99.90;;;;;;4979686;28;20187;-82
2022/01/10 14:02:35;;;;;;;10.20;6.37;;;3.70;99.90;;;;;;4998046;28;20188;-83
2022/01/10 14:05:23;;;;;;;12.13;7.47;;;3.70;99.90;;;;;;4980190;28;20288;-82
2022/01/10 14:07:54;;;;;;;7.90;6.57;;;3.20;99.90;;;;;;4988290;28;20218;-82
2022/01/10 14:10:33;;;;;;;12.53;7.70;;;4.00;99.90;;;;;;4998785;28;20176;-83
2022/01/10 14:13:09;;;;;;;13.07;7.70;;;4.70;99.90;;;;;;4998113;28;20205;-82
2022/01/10 14:15:48;;;;;;;13.17;9.87;;;3.80;99.90;;;;;;4998378;28;20553;-82
2022/01/10 14:18:32;;;;;;;;;;;;;;;;;;;;;
2022/01/10 14:21:04;;;;;;;10.13;6.77;;;3.80;99.90;;;;;;4998922;28;20271;-82
2022/01/10 14:23:57;;;;;;;8.33;6.97;;;3.80;99.90;;;;;;4998162;28;20200;-83
2022/01/10 14:26:40;;;;;;;14.93;6.53;;;3.80;99.90;;;;;;4992531;28;20190;-84
2022/01/10 14:29:43;;;;;;;9.47;6.57;;;4.90;99.90;;;;;;4995702;28;20173;-82
2022/01/10 14:32:15;;;;;;;15.97;7.67;;;2.90;99.90;;;;;;4978198;28;20190;-83
2022/01/10 14:34:54;;;;;;;12.17;7.00;;;3.60;99.90;;;;;;4997114;28;20280;-82
2022/01/10 14:38:18;;;;;;;11.97;7.90;;;4.20;99.90;;;;;;4978320;28;20180;-83
2022/01/10 14:40:33;;;;;;;9.80;6.97;;;3.90;99.90;;;;;;4988910;28;20215;-82
2022/01/10 14:43:01;;;;;;;10.03;7.50;;;4.00;99.90;;;;;;4994219;28;20183;-83
2022/01/10 14:45:37;;;;;;;9.90;8.43;;;3.90;99.90;;;;;;4995515;28;20205;-81
2022/01/10 14:48:29;;;;;;;9.60;7.37;;;3.90;99.90;;;;;;4994581;28;20247;-82
2022/01/10 14:53:49;;;;;;;15.40;8.20;;;4.00;99.90;;;;;;4993714;28;20263;-83
2022/01/10 14:56:17;;;;;;;12.80;8.00;;;4.00;99.90;;;;;;4977879;28;20190;-82
2022/01/10 14:58:48;;;;;;;9.40;6.00;;;4.00;99.90;;;;;;4998518;28;20219;-82
2022/01/10 15:01:23;;;;;;;9.93;5.43;;;4.00;99.90;;;;;;4996938;28;20176;-83
2022/01/10 15:04:15;;;;;;;10.43;6.57;;;4.00;99.90;;;;;;5001128;28;20196;-83
2022/01/10 15:07:10;;;;;;;12.83;6.63;;;4.00;99.90;;;;;;4991567;28;20224;-83
2022/01/10 15:09:48;;;;;;;10.27;6.37;;;4.10;99.90;;;;;;4939858;29;20198;-83
2022/01/10 15:12:29;;;;;;;;;;;;;;;;;;;;;
2022/01/10 15:19:40;;;;;;;;;;;;;;;;;;;;;
2022/01/10 15:29:35;;;;;;;7.30;6.20;;;4.10;99.90;;;;;;4963750;28;20190;-83
2022/01/10 15:32:35;;;;;;;;;;;;;;;;;;;;;
2022/01/10 15:35:06;;;;;;;6.97;5.77;;;4.00;99.90;;;;;;5001154;28;20209;-83
2022/01/10 15:37:35;;;;;;;8.83;6.00;;;4.00;99.90;;;;;;4980506;28;20598;-84
2022/01/10 15:40:01;;;;;;;11.20;7.03;;;4.00;99.90;;;;;;4976905;28;20261;-83
2022/01/10 15:42:30;;;;;;;7.90;6.57;;;4.10;99.90;;;;;;4982342;28;20701;-84
2022/01/10 15:45:17;;;;;;;10.17;7.80;;;3.90;99.90;;;;;;4985275;28;20218;-84
2022/01/10 15:47:49;;;;;;;8.90;6.00;;;4.40;99.90;;;;;;4973632;28;20204;-84
2022/01/10 15:51:06;;;;;;;10.70;6.30;;;3.90;99.90;;;;;;5009045;28;20179;-84
2022/01/10 16:08:01;;;;;;;7.50;4.60;;;4.10;99.90;;;;;;4821327;29;20234;-83
2022/01/10 16:11:14;;;;;;;;;;;;;;;;;;;;;
2022/01/10 16:14:04;;;;;;;5.43;4.57;;;3.00;99.90;;;;;;4862503;29;20300;-83
2022/01/10 16:34:31;;;;;;;10.27;7.73;;;3.30;99.90;;;;;;4850565;29;20218;-83
2022/01/10 16:37:18;;;;;;;12.67;7.10;;;3.90;99.90;;;;;;4864878;29;20894;-83
2022/01/10 16:39:44;;;;;;;12.70;7.30;;;3.40;99.90;;;;;;5001002;28;20186;-82
2022/01/10 16:42:44;;;;;;;9.33;7.37;;;3.40;99.90;;;;;;4982305;28;20273;-81
2022/01/10 16:45:14;;;;;;;10.43;6.87;;;4.30;99.90;;;;;;4981391;28;20272;-84
2022/01/10 16:47:49;;;;;;;10.10;7.67;;;3.40;99.90;;;;;;4981948;28;20208;-85
2022/01/10 16:50:23;;;;;;;8.73;7.57;;;3.40;99.90;;;;;;4980276;28;20661;-83
2022/01/10 16:52:54;;;;;;;9.23;7.03;;;4.00;99.90;;;;;;4979942;28;20196;-82
2022/01/10 16:55:20;;;;;;;10.43;6.80;;;3.30;99.90;;;;;;4998937;28;20207;-82
2022/01/10 16:57:51;;;;;;;7.50;6.73;;;3.20;99.90;;;;;;4999345;28;20256;-82
2022/01/10 17:00:25;;;;;;;10.30;7.00;;;3.20;99.90;;;;;;4982795;28;20189;-80
2022/01/10 17:03:04;;;;;;;10.33;8.40;;;3.60;99.90;;;;;;4981196;28;20198;-82
2022/01/10 17:05:39;;;;;;;19.77;10.33;;;3.90;99.90;;;;;;4982627;28;20785;-82
2022/01/10 17:08:10;;;;;;;17.57;11.50;;;3.10;99.90;;;;;;4980766;28;20206;-82
2022/01/10 17:10:53;;;;;;;13.63;8.83;;;3.00;99.90;;;;;;4980401;28;20174;-82
2022/01/10 17:13:29;;;;;;;14.23;8.30;;;3.10;99.90;;;;;;4978251;28;20223;-83
2022/01/10 17:16:08;;;;;;;11.00;8.77;;;2.70;99.90;;;;;;4999179;28;20176;-84
2022/01/10 17:18:49;;;;;;;10.13;8.33;;;4.10;99.90;;;;;;4981504;28;20235;-83
2022/01/10 17:21:30;;;;;;;13.80;8.50;;;4.30;99.90;;;;;;4983557;28;20195;-83
2022/01/10 17:23:59;;;;;;;9.43;8.00;;;3.10;99.90;;;;;;4982392;28;20229;-83
2022/01/10 17:26:28;;;;;;;13.20;9.17;;;3.10;99.90;;;;;;4977075;28;20178;-86
2022/01/10 17:29:02;;;;;;;13.40;9.53;;;3.90;99.90;;;;;;4981685;28;20206;-83
2022/01/10 17:31:37;;;;;;;11.27;8.73;;;2.80;99.90;;;;;;4982017;28;20262;-83
2022/01/10 17:34:16;;;;;;;11.23;8.90;;;2.90;99.90;;;;;;4982118;28;20217;-83
2022/01/10 17:36:44;;;;;;;14.23;9.57;;;3.00;99.90;;;;;;4997728;28;20190;-83
2022/01/10 17:39:30;;;;;;;16.77;10.43;;;3.00;99.90;;;;;;5000603;28;20195;-84
2022/01/10 17:41:58;;;;;;;12.17;9.43;;;2.90;99.90;;;;;;4979857;28;20198;-83
2022/01/10 17:44:27;;;;;;;18.97;10.57;;;2.90;99.90;;;;;;4981571;28;20255;-83
2022/01/10 17:47:06;;;;;;;17.70;10.73;;;2.80;99.90;;;;;;4981750;28;20207;-83
2022/01/10 17:49:47;;;;;;;16.57;11.00;;;2.70;99.90;;;;;;4998097;28;20185;-83
2022/01/10 17:52:24;;;;;;;24.03;12.30;;;3.50;99.90;;;;;;5000842;28;20195;-84
2022/01/10 17:55:02;;;;;;;18.20;11.60;;;2.70;99.90;;;;;;4980060;28;20214;-81
2022/01/10 17:57:28;;;;;;;23.03;13.30;;;2.20;99.90;;;;;;4978980;28;20226;-82
2022/01/10 18:00:03;;;;;;;20.10;13.40;;;1.90;99.90;;;;;;4980913;28;20275;-82
2022/01/10 18:02:39;;;;;;;16.83;12.50;;;2.50;99.90;;;;;;4998370;28;20221;-82
2022/01/10 18:05:12;;;;;;;18.53;11.97;;;2.40;99.90;;;;;;4977279;28;20262;-81
2022/01/10 18:07:39;;;;;;;15.43;11.10;;;2.50;99.90;;;;;;5001337;28;20200;-82
2022/01/10 18:10:06;;;;;;;15.47;11.67;;;3.20;99.90;;;;;;5004054;28;20176;-80
2022/01/10 18:12:32;;;;;;;12.57;9.67;;;2.40;99.90;;;;;;5005423;28;20183;-84
2022/01/10 18:14:57;;;;;;;14.40;10.47;;;2.30;99.90;;;;;;5003640;28;20215;-83
2022/01/10 18:17:23;;;;;;;15.10;10.03;;;2.70;99.90;;;;;;4981961;28;20187;-83
2022/01/10 18:19:49;;;;;;;15.77;10.60;;;2.20;99.90;;;;;;4980645;28;20669;-82
2022/01/10 18:22:17;;;;;;;11.37;9.83;;;2.20;99.90;;;;;;4999195;28;20597;-82
2022/01/10 18:24:42;;;;;;;12.87;9.90;;;2.10;99.90;;;;;;4996613;28;20208;-83
2022/01/10 18:27:08;;;;;;;19.70;11.67;;;2.00;99.90;;;;;;4981367;28;20206;-83
2022/01/10 18:29:34;;;;;;;15.00;10.23;;;1.90;99.90;;;;;;4996347;28;20187;-83
2022/01/10 18:32:00;;;;;;;14.67;9.87;;;1.90;99.90;;;;;;4998109;28;20189;-83
2022/01/10 18:34:27;;;;;;;13.23;10.20;;;1.90;99.90;;;;;;4982261;28;20196;-82